createdAt,value
2018-11-21T00:01:50.339Z,4.80
2018-11-21T00:04:19.765Z,4.80
2018-11-21T00:06:49.195Z,4.60
2018-11-21T00:09:18.611Z,4.80
2018-11-21T00:11:48.029Z,4.70
2018-11-21T00:14:17.473Z,4.40
2018-11-21T00:16:46.886Z,5.00
2018-11-21T00:19:16.298Z,4.80
2018-11-21T00:21:45.704Z,4.40
2018-11-21T00:24:15.126Z,4.60
2018-11-21T00:26:44.538Z,4.80
2018-11-21T00:29:13.947Z,4.50
2018-11-21T00:31:43.352Z,4.60
2018-11-21T00:34:12.785Z,4.80
2018-11-21T00:36:42.194Z,4.40
2018-11-21T00:39:12.038Z,4.40
2018-11-21T00:41:41.801Z,4.10
2018-11-21T00:44:11.221Z,4.50
2018-11-21T00:46:40.912Z,4.50
2018-11-21T00:49:10.330Z,4.30
2018-11-21T00:51:39.736Z,4.10
2018-11-21T00:54:09.693Z,3.90
2018-11-21T00:56:39.104Z,4.20
2018-11-21T00:59:08.535Z,4.30
2018-11-21T01:01:37.951Z,4.10
2018-11-21T01:04:07.355Z,4.40
2018-11-21T01:06:36.784Z,3.90
2018-11-21T01:09:07.654Z,3.80
2018-11-21T01:11:37.235Z,4.50
2018-11-21T01:14:06.636Z,4.50
2018-11-21T01:16:36.060Z,4.40
2018-11-21T01:19:05.481Z,4.30
2018-11-21T01:21:34.905Z,4.10
2018-11-21T01:24:04.589Z,3.80
2018-11-21T01:26:33.993Z,4.10
2018-11-21T01:29:03.431Z,4.30
2018-11-21T01:31:32.862Z,4.70
2018-11-21T01:34:02.648Z,4.60
2018-11-21T01:36:32.093Z,4.50
2018-11-21T01:39:01.514Z,4.30
2018-11-21T01:41:30.936Z,4.30
2018-11-21T01:44:00.367Z,3.90
2018-11-21T01:46:29.812Z,3.70
2018-11-21T01:48:59.249Z,4.20
2018-11-21T01:51:28.676Z,4.30
2018-11-21T01:53:58.305Z,4.30
2018-11-21T01:56:27.844Z,4.40
2018-11-21T01:58:57.297Z,4.10
2018-11-21T02:01:26.722Z,3.90
2018-11-21T02:03:56.394Z,3.90
2018-11-21T02:06:25.845Z,4.00
2018-11-21T02:08:55.255Z,4.30
2018-11-21T02:11:24.684Z,4.20
2018-11-21T02:13:54.439Z,4.30
2018-11-21T02:16:23.844Z,4.70
2018-11-21T02:18:53.261Z,4.50
2018-11-21T02:21:22.687Z,4.30
2018-11-21T02:23:52.401Z,4.40
2018-11-21T02:26:21.805Z,4.60
2018-11-21T02:28:51.204Z,4.40
2018-11-21T02:31:20.620Z,4.30
2018-11-21T02:33:50.040Z,4.80
2018-11-21T02:36:19.471Z,4.70
2018-11-21T02:38:48.895Z,4.60
2018-11-21T02:41:18.315Z,4.50
2018-11-21T02:43:47.737Z,4.30
2018-11-21T02:46:17.186Z,4.40
2018-11-21T02:48:46.625Z,4.40
2018-11-21T02:51:16.030Z,4.40
2018-11-21T02:53:45.435Z,4.40
2018-11-21T02:56:14.869Z,5.00
2018-11-21T02:58:44.281Z,4.50
2018-11-21T03:03:43.112Z,4.20
2018-11-21T03:06:12.527Z,4.40
2018-11-21T03:08:41.982Z,4.40
2018-11-21T03:11:11.396Z,4.70
2018-11-21T03:13:41.132Z,4.70
2018-11-21T03:16:10.540Z,4.70
2018-11-21T03:18:39.974Z,4.60
2018-11-21T03:21:09.374Z,4.40
2018-11-21T03:23:38.790Z,4.60
2018-11-21T03:26:08.226Z,4.70
2018-11-21T03:28:37.621Z,4.70
2018-11-21T03:31:07.317Z,5.10
2018-11-21T03:33:36.736Z,4.60
2018-11-21T03:36:06.153Z,5.10
2018-11-21T03:38:35.579Z,5.20
2018-11-21T03:41:04.996Z,4.80
2018-11-21T03:43:34.402Z,5.10
2018-11-21T03:46:03.828Z,4.90
2018-11-21T03:48:33.277Z,5.20
2018-11-21T03:51:02.673Z,4.70
2018-11-21T03:53:32.113Z,4.70
2018-11-21T03:56:01.515Z,4.70
2018-11-21T03:58:31.211Z,5.10
2018-11-21T04:01:00.650Z,4.80
2018-11-21T04:03:30.099Z,4.60
2018-11-21T04:05:59.536Z,4.70
2018-11-21T04:08:28.968Z,4.50
2018-11-21T04:10:58.400Z,4.40
2018-11-21T04:13:27.824Z,5.10
2018-11-21T04:15:57.244Z,5.20
2018-11-21T04:18:26.671Z,5.00
2018-11-21T04:20:56.252Z,4.90
2018-11-21T04:23:25.667Z,5.00
2018-11-21T04:25:55.109Z,5.20
2018-11-21T04:28:24.532Z,5.90
2018-11-21T04:30:53.964Z,5.50
2018-11-21T04:33:23.378Z,5.40
2018-11-21T04:35:52.845Z,5.00
2018-11-21T04:38:22.271Z,4.80
2018-11-21T04:40:51.675Z,5.10
2018-11-21T04:43:21.095Z,5.60
2018-11-21T04:45:50.517Z,5.60
2018-11-21T04:48:19.915Z,5.10
2018-11-21T04:50:49.350Z,5.10
2018-11-21T04:53:19.317Z,5.20
2018-11-21T04:55:48.733Z,4.90
2018-11-21T04:58:18.141Z,5.20
2018-11-21T05:00:47.584Z,5.50
2018-11-21T05:03:16.986Z,5.80
2018-11-21T05:05:46.386Z,5.30
2018-11-21T05:08:16.099Z,5.00
2018-11-21T05:10:45.492Z,4.80
2018-11-21T05:13:14.923Z,5.00
2018-11-21T05:15:44.330Z,5.30
2018-11-21T05:18:13.740Z,5.60
2018-11-21T05:20:43.146Z,5.00
2018-11-21T05:23:12.542Z,4.90
2018-11-21T05:25:41.954Z,5.00
2018-11-21T05:28:11.345Z,5.10
2018-11-21T05:30:40.845Z,5.00
2018-11-21T05:33:10.257Z,5.20
2018-11-21T05:35:39.667Z,4.80
2018-11-21T05:38:09.087Z,4.80
2018-11-21T05:40:38.497Z,4.80
2018-11-21T05:43:07.938Z,4.70
2018-11-21T05:45:37.338Z,4.90
2018-11-21T05:48:07.139Z,4.80
2018-11-21T05:50:36.665Z,4.80
2018-11-21T05:53:06.108Z,5.20
2018-11-21T05:55:35.818Z,5.30
2018-11-21T05:58:05.364Z,5.00
2018-11-21T06:00:34.773Z,4.90
2018-11-21T06:03:04.209Z,5.10
2018-11-21T06:05:33.617Z,5.00
2018-11-21T06:08:03.041Z,4.80
2018-11-21T06:10:32.485Z,5.00
2018-11-21T06:13:01.945Z,5.10
2018-11-21T06:15:31.374Z,5.20
2018-11-21T06:18:00.797Z,5.00
2018-11-21T06:20:30.199Z,4.60
2018-11-21T06:22:59.636Z,4.90
2018-11-21T06:25:29.060Z,4.50
2018-11-21T06:27:58.749Z,4.70
2018-11-21T06:30:28.172Z,4.50
2018-11-21T06:32:57.600Z,4.90
2018-11-21T06:35:27.062Z,4.90
2018-11-21T06:37:56.463Z,5.30
2018-11-21T06:40:25.902Z,4.70
2018-11-21T06:42:59.024Z,4.90
2018-11-21T06:45:29.344Z,4.80
2018-11-21T06:47:58.774Z,4.60
2018-11-21T06:50:28.189Z,4.60
2018-11-21T06:52:58.596Z,5.00
2018-11-21T06:55:28.182Z,4.70
2018-11-21T06:57:57.868Z,4.60
2018-11-21T07:00:27.296Z,4.90
2018-11-21T07:02:56.702Z,5.20
2018-11-21T07:05:26.225Z,5.50
2018-11-21T07:07:55.654Z,5.40
2018-11-21T07:10:25.056Z,4.90
2018-11-21T07:12:54.519Z,4.70
2018-11-21T07:15:23.965Z,5.10
2018-11-21T07:17:53.372Z,5.50
2018-11-21T07:20:22.791Z,5.70
2018-11-21T07:22:52.186Z,5.40
2018-11-21T07:25:22.939Z,5.80
2018-11-21T07:27:52.413Z,6.10
2018-11-21T07:30:21.908Z,6.00
2018-11-21T07:32:51.389Z,6.40
2018-11-21T07:35:20.830Z,6.60
2018-11-21T07:37:50.230Z,6.00
2018-11-21T07:40:19.650Z,5.90
2018-11-21T07:42:49.051Z,6.00
2018-11-21T07:45:18.478Z,6.10
2018-11-21T07:47:47.915Z,6.00
2018-11-21T07:50:18.888Z,6.40
2018-11-21T07:52:48.320Z,6.10
2018-11-21T07:55:17.757Z,5.60
2018-11-21T07:57:51.376Z,6.00
2018-11-21T08:00:56.658Z,6.10
2018-11-21T08:03:27.623Z,6.10
2018-11-21T08:05:59.770Z,6.30
2018-11-21T08:08:40.987Z,6.30
2018-11-21T08:11:29.294Z,6.10
2018-11-21T08:14:22.234Z,6.30
2018-11-21T08:17:19.206Z,6.30
2018-11-21T08:20:10.245Z,6.50
2018-11-21T08:22:56.887Z,6.90
2018-11-21T08:25:54.276Z,6.80
2018-11-21T08:28:29.275Z,6.60
2018-11-21T08:30:58.741Z,6.60
2018-11-21T08:33:33.869Z,7.00
2018-11-21T08:35:58.345Z,6.40
2018-11-21T08:38:27.748Z,6.40
2018-11-21T08:40:57.208Z,6.60
2018-11-21T08:43:26.923Z,6.30
2018-11-21T08:45:56.330Z,6.10
2018-11-21T08:48:25.934Z,6.30
2018-11-21T08:50:55.376Z,6.40
2018-11-21T08:53:25.066Z,5.90
2018-11-21T08:55:54.496Z,5.80
2018-11-21T08:58:23.942Z,6.10
2018-11-21T09:00:53.370Z,5.90
2018-11-21T09:03:22.749Z,6.40
2018-11-21T09:05:52.173Z,6.20
2018-11-21T09:08:21.596Z,6.40
2018-11-21T09:10:51.064Z,6.00
2018-11-21T09:13:20.480Z,5.80
2018-11-21T09:15:49.911Z,5.70
2018-11-21T09:18:19.335Z,6.30
2018-11-21T09:20:48.758Z,6.60
2018-11-21T09:23:18.210Z,7.10
2018-11-21T09:25:47.907Z,7.10
2018-11-21T09:28:17.309Z,6.30
2018-11-21T09:30:46.755Z,6.40
2018-11-21T09:33:16.200Z,6.30
2018-11-21T09:35:45.678Z,6.30
2018-11-21T09:38:15.113Z,6.50
2018-11-21T09:40:44.550Z,6.50
2018-11-21T09:43:13.964Z,6.80
2018-11-21T09:45:43.372Z,7.00
2018-11-21T09:48:13.254Z,6.80
2018-11-21T09:50:42.680Z,6.50
2018-11-21T09:53:12.088Z,6.50
2018-11-21T09:55:41.521Z,6.30
2018-11-21T09:58:10.940Z,6.40
2018-11-21T10:01:15.890Z,6.20
2018-11-21T10:03:45.293Z,6.10
2018-11-21T10:06:17.338Z,6.40
2018-11-21T10:08:50.942Z,6.00
2018-11-21T10:11:20.639Z,6.30
2018-11-21T10:13:50.074Z,6.40
2018-11-21T10:16:19.507Z,6.40
2018-11-21T10:18:50.582Z,7.20
2018-11-21T10:21:21.552Z,7.70
2018-11-21T10:23:50.963Z,7.50
2018-11-21T10:26:20.360Z,7.00
2018-11-21T10:28:50.525Z,6.80
2018-11-21T10:31:19.935Z,6.90
2018-11-21T10:33:49.392Z,7.00
2018-11-21T10:36:18.815Z,7.20
2018-11-21T10:38:48.229Z,7.00
2018-11-21T10:41:17.692Z,6.90
2018-11-21T10:43:47.166Z,6.80
2018-11-21T10:46:16.582Z,6.60
2018-11-21T10:48:46.009Z,6.80
2018-11-21T10:51:15.425Z,6.80
2018-11-21T10:53:44.860Z,7.40
2018-11-21T10:56:14.389Z,7.80
2018-11-21T10:58:44.109Z,8.00
2018-11-21T11:01:47.257Z,8.50
2018-11-21T11:04:22.599Z,8.70
2018-11-21T11:07:09.642Z,8.70
2018-11-21T11:10:00.731Z,8.10
2018-11-21T11:12:48.938Z,8.00
2018-11-21T11:15:52.168Z,8.30
2018-11-21T11:18:37.743Z,8.90
2018-11-21T11:21:24.829Z,7.70
2018-11-21T11:24:18.967Z,10.40
2018-11-21T11:27:08.033Z,8.70
2018-11-21T11:29:52.376Z,9.10
2018-11-21T11:32:46.317Z,8.60
2018-11-21T11:35:43.262Z,8.70
2018-11-21T11:38:46.799Z,8.90
2018-11-21T11:41:35.006Z,9.00
2018-11-21T11:44:29.321Z,8.60
2018-11-21T11:47:15.708Z,8.70
2018-11-21T11:50:13.542Z,8.70
2018-11-21T11:53:04.672Z,8.70
2018-11-21T11:55:57.808Z,8.70
2018-11-21T11:58:52.115Z,8.50
2018-11-21T12:01:31.986Z,8.10
2018-11-21T12:04:15.400Z,8.10
2018-11-21T12:06:56.569Z,8.40
2018-11-21T12:09:43.034Z,8.50
2018-11-21T12:12:29.705Z,8.70
2018-11-21T12:15:16.386Z,9.30
2018-11-21T12:18:09.739Z,9.10
2018-11-21T12:20:57.345Z,9.50
2018-11-21T12:23:44.121Z,9.50
2018-11-21T12:26:47.126Z,9.70
2018-11-21T12:29:33.957Z,9.80
2018-11-21T12:32:21.031Z,9.50
2018-11-21T12:35:14.801Z,8.20
2018-11-21T12:38:02.990Z,9.00
2018-11-21T12:40:42.868Z,8.40
2018-11-21T12:43:44.095Z,8.50
2018-11-21T12:46:35.053Z,8.20
2018-11-21T12:49:27.256Z,8.70
2018-11-21T12:52:25.368Z,8.90
2018-11-21T12:55:22.693Z,9.60
2018-11-21T12:58:09.113Z,9.70
2018-11-21T13:00:59.904Z,8.60
2018-11-21T13:04:05.803Z,8.80
2018-11-21T13:07:02.901Z,9.20
2018-11-21T13:09:52.892Z,8.30
2018-11-21T13:12:35.960Z,9.40
2018-11-21T13:15:17.638Z,8.90
2018-11-21T13:18:20.653Z,9.20
2018-11-21T13:21:07.528Z,9.70
2018-11-21T13:23:49.857Z,9.10
2018-11-21T13:26:40.587Z,8.40
2018-11-21T13:29:18.310Z,8.40
2018-11-21T13:32:04.032Z,8.90
2018-11-21T13:34:46.985Z,8.90
2018-11-21T13:37:53.226Z,8.70
2018-11-21T13:40:53.158Z,8.40
2018-11-21T13:43:39.935Z,9.00
2018-11-21T13:46:26.509Z,8.80
2018-11-21T13:49:16.242Z,8.40
2018-11-21T13:52:03.091Z,7.90
2018-11-21T13:54:50.927Z,8.00
2018-11-21T13:57:21.053Z,8.60
2018-11-21T13:59:50.720Z,8.00
2018-11-21T14:02:20.136Z,8.20
2018-11-21T14:04:49.685Z,8.10
2018-11-21T14:07:19.128Z,8.20
2018-11-21T14:09:48.529Z,8.60
2018-11-21T14:12:17.956Z,8.70
2018-11-21T14:14:47.618Z,9.10
2018-11-21T14:17:17.039Z,9.20
2018-11-21T14:19:46.457Z,9.00
2018-11-21T14:22:15.870Z,8.80
2018-11-21T14:24:45.303Z,9.20
2018-11-21T14:27:14.728Z,8.80
2018-11-21T14:29:44.139Z,8.50
2018-11-21T14:32:16.592Z,8.70
2018-11-21T14:34:46.001Z,9.50
2018-11-21T14:37:15.406Z,9.70
2018-11-21T14:39:44.811Z,10.20
2018-11-21T14:42:14.240Z,10.20
2018-11-21T14:44:43.736Z,10.10
2018-11-21T14:49:43.360Z,9.80
2018-11-21T14:52:12.797Z,9.80
2018-11-21T14:54:42.262Z,10.00
2018-11-21T14:57:11.689Z,10.30
2018-11-21T14:59:41.116Z,10.20
2018-11-21T15:04:39.540Z,10.00
2018-11-21T15:07:08.953Z,9.30
2018-11-21T15:09:38.378Z,9.30
2018-11-21T15:12:08.346Z,9.30
2018-11-21T15:14:37.754Z,9.40
2018-11-21T15:17:07.233Z,9.70
2018-11-21T15:29:31.982Z,9.70
2018-11-21T15:34:30.186Z,6.50
2018-11-21T15:39:28.405Z,6.40
2018-11-21T15:41:57.893Z,6.20
2018-11-21T15:52:01.366Z,6.30
2018-11-21T15:54:23.769Z,6.40
2018-11-21T15:59:21.997Z,6.40
2018-11-21T16:04:20.230Z,6.30
2018-11-21T16:06:49.969Z,6.20
2018-11-21T16:09:19.389Z,6.20
2018-11-21T16:11:48.837Z,6.20
2018-11-21T16:19:16.298Z,6.20
2018-11-21T16:21:45.744Z,6.20
2018-11-21T16:24:15.165Z,6.20
